sensor_id;sensor_type;location;lat;lon;timestamp;temperature;humidity
5130;DHT22;2583;50.946;6.954;2023-04-07T00:00:24;8.90;99.90
5130;DHT22;2583;50.946;6.954;2023-04-07T00:02:52;8.90;99.90
5130;DHT22;2583;50.946;6.954;2023-04-07T00:05:19;8.90;99.90
5130;DHT22;2583;50.946;6.954;2023-04-07T00:07:46;8.90;1.00
5130;DHT22;2583;50.946;6.954;2023-04-07T00:10:23;8.90;1.00
5130;DHT22;2583;50.946;6.954;2023-04-07T00:12:50;8.90;99.90
5130;DHT22;2583;50.946;6.954;2023-04-07T00:15:17;8.80;1.00
5130;DHT22;2583;50.946;6.954;2023-04-07T00:17:44;8.70;1.00
5130;DHT22;2583;50.946;6.954;2023-04-07T00:20:11;8.80;1.00
5130;DHT22;2583;50.946;6.954;2023-04-07T00:22:38;8.90;1.00
5130;DHT22;2583;50.946;6.954;2023-04-07T00:25:05;8.90;1.00
5130;DHT22;2583;50.946;6.954;2023-04-07T00:27:32;8.90;1.00
5130;DHT22;2583;50.946;6.954;2023-04-07T00:29:59;9.00;1.00
5130;DHT22;2583;50.946;6.954;2023-04-07T00:32:26;9.00;1.00
5130;DHT22;2583;50.946;6.954;2023-04-07T00:34:53;9.00;1.00
5130;DHT22;2583;50.946;6.954;2023-04-07T00:37:19;9.00;1.00
5130;DHT22;2583;50.946;6.954;2023-04-07T00:39:46;9.00;1.00
5130;DHT22;2583;50.946;6.954;2023-04-07T00:42:13;9.00;1.00
5130;DHT22;2583;50.946;6.954;2023-04-07T00:44:40;9.00;1.00
5130;DHT22;2583;50.946;6.954;2023-04-07T00:47:07;9.00;1.00
5130;DHT22;2583;50.946;6.954;2023-04-07T00:49:38;8.90;1.00
5130;DHT22;2583;50.946;6.954;2023-04-07T00:52:05;8.90;1.00
5130;DHT22;2583;50.946;6.954;2023-04-07T00:54:33;9.00;1.00
5130;DHT22;2583;50.946;6.954;2023-04-07T00:57:00;9.00;1.00
5130;DHT22;2583;50.946;6.954;2023-04-07T00:59:27;9.10;1.00
5130;DHT22;2583;50.946;6.954;2023-04-07T01:04:38;9.10;1.00
5130;DHT22;2583;50.946;6.954;2023-04-07T01:07:16;9.20;1.00
5130;DHT22;2583;50.946;6.954;2023-04-07T01:09:53;9.20;1.00
5130;DHT22;2583;50.946;6.954;2023-04-07T01:12:48;9.20;1.00
5130;DHT22;2583;50.946;6.954;2023-04-07T01:15:20;9.20;1.00
5130;DHT22;2583;50.946;6.954;2023-04-07T01:17:53;9.10;1.00
5130;DHT22;2583;50.946;6.954;2023-04-07T01:20:22;9.20;1.00
5130;DHT22;2583;50.946;6.954;2023-04-07T01:22:55;9.20;1.00
5130;DHT22;2583;50.946;6.954;2023-04-07T01:30:34;9.20;1.00
5130;DHT22;2583;50.946;6.954;2023-04-07T01:33:04;9.20;1.00
5130;DHT22;2583;50.946;6.954;2023-04-07T01:35:33;9.20;1.00
5130;DHT22;2583;50.946;6.954;2023-04-07T01:38:02;9.20;4.60
5130;DHT22;2583;50.946;6.954;2023-04-07T01:40:29;9.30;17.40
5130;DHT22;2583;50.946;6.954;2023-04-07T01:42:57;9.30;29.60
5130;DHT22;2583;50.946;6.954;2023-04-07T01:45:25;9.40;1.00
5130;DHT22;2583;50.946;6.954;2023-04-07T01:47:53;9.40;1.00
5130;DHT22;2583;50.946;6.954;2023-04-07T01:50:21;9.40;1.00
5130;DHT22;2583;50.946;6.954;2023-04-07T01:52:48;9.40;1.00
5130;DHT22;2583;50.946;6.954;2023-04-07T01:55:15;9.40;1.00
5130;DHT22;2583;50.946;6.954;2023-04-07T01:57:41;9.50;1.00
5130;DHT22;2583;50.946;6.954;2023-04-07T02:00:09;9.50;1.00
5130;DHT22;2583;50.946;6.954;2023-04-07T02:02:40;9.50;1.00
5130;DHT22;2583;50.946;6.954;2023-04-07T02:05:12;9.60;1.00
5130;DHT22;2583;50.946;6.954;2023-04-07T02:07:49;9.60;1.00
5130;DHT22;2583;50.946;6.954;2023-04-07T02:10:21;9.60;1.00
5130;DHT22;2583;50.946;6.954;2023-04-07T02:12:49;9.60;1.00
5130;DHT22;2583;50.946;6.954;2023-04-07T02:15:17;9.60;1.00
5130;DHT22;2583;50.946;6.954;2023-04-07T02:17:51;9.60;1.00
5130;DHT22;2583;50.946;6.954;2023-04-07T02:20:19;9.60;1.00
5130;DHT22;2583;50.946;6.954;2023-04-07T02:22:47;9.60;1.00
5130;DHT22;2583;50.946;6.954;2023-04-07T02:25:28;9.60;1.00
5130;DHT22;2583;50.946;6.954;2023-04-07T02:27:56;9.60;1.00
5130;DHT22;2583;50.946;6.954;2023-04-07T02:30:24;9.70;1.00
5130;DHT22;2583;50.946;6.954;2023-04-07T02:32:51;9.70;1.00
5130;DHT22;2583;50.946;6.954;2023-04-07T02:35:18;9.70;1.00
5130;DHT22;2583;50.946;6.954;2023-04-07T02:37:46;9.70;1.00
5130;DHT22;2583;50.946;6.954;2023-04-07T02:40:13;9.70;1.00
5130;DHT22;2583;50.946;6.954;2023-04-07T02:42:39;9.60;1.00
5130;DHT22;2583;50.946;6.954;2023-04-07T02:45:08;9.60;1.00
5130;DHT22;2583;50.946;6.954;2023-04-07T02:47:35;9.60;1.00
5130;DHT22;2583;50.946;6.954;2023-04-07T02:50:02;9.60;1.00
5130;DHT22;2583;50.946;6.954;2023-04-07T02:52:30;9.60;1.00
5130;DHT22;2583;50.946;6.954;2023-04-07T02:54:56;9.70;26.40
5130;DHT22;2583;50.946;6.954;2023-04-07T02:57:23;9.60;8.00
5130;DHT22;2583;50.946;6.954;2023-04-07T02:59:50;9.60;35.50
5130;DHT22;2583;50.946;6.954;2023-04-07T03:02:17;9.60;40.20
5130;DHT22;2583;50.946;6.954;2023-04-07T03:04:44;9.60;23.30
5130;DHT22;2583;50.946;6.954;2023-04-07T03:07:10;9.60;53.60
5130;DHT22;2583;50.946;6.954;2023-04-07T03:09:37;9.60;42.90
5130;DHT22;2583;50.946;6.954;2023-04-07T03:12:04;9.50;57.30
5130;DHT22;2583;50.946;6.954;2023-04-07T03:14:31;9.50;52.30
5130;DHT22;2583;50.946;6.954;2023-04-07T03:16:58;9.50;84.80
5130;DHT22;2583;50.946;6.954;2023-04-07T03:19:24;9.50;99.90
5130;DHT22;2583;50.946;6.954;2023-04-07T03:21:51;9.50;99.90
5130;DHT22;2583;50.946;6.954;2023-04-07T03:24:18;9.40;99.90
5130;DHT22;2583;50.946;6.954;2023-04-07T03:26:45;9.50;99.90
5130;DHT22;2583;50.946;6.954;2023-04-07T03:29:12;9.50;99.90
5130;DHT22;2583;50.946;6.954;2023-04-07T03:31:39;9.50;99.90
5130;DHT22;2583;50.946;6.954;2023-04-07T03:34:06;9.50;99.90
5130;DHT22;2583;50.946;6.954;2023-04-07T03:36:33;9.40;99.90
5130;DHT22;2583;50.946;6.954;2023-04-07T03:38:59;9.50;99.90
5130;DHT22;2583;50.946;6.954;2023-04-07T03:41:26;9.40;99.90
5130;DHT22;2583;50.946;6.954;2023-04-07T03:43:53;9.50;99.90
5130;DHT22;2583;50.946;6.954;2023-04-07T03:46:20;9.60;99.90
5130;DHT22;2583;50.946;6.954;2023-04-07T03:48:47;9.50;99.90
5130;DHT22;2583;50.946;6.954;2023-04-07T03:51:14;9.50;99.90
5130;DHT22;2583;50.946;6.954;2023-04-07T03:53:41;9.50;92.60
5130;DHT22;2583;50.946;6.954;2023-04-07T03:56:08;9.40;94.50
5130;DHT22;2583;50.946;6.954;2023-04-07T03:58:35;9.50;91.90
5130;DHT22;2583;50.946;6.954;2023-04-07T04:01:02;9.40;38.70
5130;DHT22;2583;50.946;6.954;2023-04-07T04:03:29;9.40;20.90
5130;DHT22;2583;50.946;6.954;2023-04-07T04:05:56;9.30;16.40
5130;DHT22;2583;50.946;6.954;2023-04-07T04:08:23;9.30;25.40
5130;DHT22;2583;50.946;6.954;2023-04-07T04:10:49;9.30;49.00
5130;DHT22;2583;50.946;6.954;2023-04-07T04:13:16;9.30;14.30
5130;DHT22;2583;50.946;6.954;2023-04-07T04:15:43;9.30;19.40
5130;DHT22;2583;50.946;6.954;2023-04-07T04:18:10;9.30;2.70
5130;DHT22;2583;50.946;6.954;2023-04-07T04:20:37;9.30;9.80
5130;DHT22;2583;50.946;6.954;2023-04-07T04:23:03;9.30;1.00
5130;DHT22;2583;50.946;6.954;2023-04-07T04:25:30;9.30;1.00
5130;DHT22;2583;50.946;6.954;2023-04-07T04:27:57;9.30;1.00
5130;DHT22;2583;50.946;6.954;2023-04-07T04:30:24;9.30;1.00
5130;DHT22;2583;50.946;6.954;2023-04-07T04:32:50;9.30;1.00
5130;DHT22;2583;50.946;6.954;2023-04-07T04:35:17;9.30;1.00
5130;DHT22;2583;50.946;6.954;2023-04-07T04:37:44;9.20;1.00
5130;DHT22;2583;50.946;6.954;2023-04-07T04:40:11;9.30;1.00
5130;DHT22;2583;50.946;6.954;2023-04-07T04:42:38;9.30;1.00
5130;DHT22;2583;50.946;6.954;2023-04-07T04:45:06;9.30;1.00
5130;DHT22;2583;50.946;6.954;2023-04-07T04:47:33;9.20;1.00
5130;DHT22;2583;50.946;6.954;2023-04-07T04:50:00;9.20;1.00
5130;DHT22;2583;50.946;6.954;2023-04-07T04:52:26;9.20;1.00
5130;DHT22;2583;50.946;6.954;2023-04-07T04:54:54;9.20;1.00
5130;DHT22;2583;50.946;6.954;2023-04-07T04:57:21;9.20;1.00
5130;DHT22;2583;50.946;6.954;2023-04-07T04:59:48;9.20;1.00
5130;DHT22;2583;50.946;6.954;2023-04-07T05:02:15;9.20;1.00
5130;DHT22;2583;50.946;6.954;2023-04-07T05:04:41;9.30;1.00
5130;DHT22;2583;50.946;6.954;2023-04-07T05:07:09;9.30;1.00
5130;DHT22;2583;50.946;6.954;2023-04-07T05:09:35;9.20;1.00
5130;DHT22;2583;50.946;6.954;2023-04-07T05:12:02;9.20;1.00
5130;DHT22;2583;50.946;6.954;2023-04-07T05:14:29;9.20;1.00
5130;DHT22;2583;50.946;6.954;2023-04-07T05:16:56;9.30;1.00
5130;DHT22;2583;50.946;6.954;2023-04-07T05:19:23;9.20;1.00
5130;DHT22;2583;50.946;6.954;2023-04-07T05:21:49;9.20;1.00
5130;DHT22;2583;50.946;6.954;2023-04-07T05:24:16;9.20;1.00
5130;DHT22;2583;50.946;6.954;2023-04-07T05:26:43;9.20;1.00
5130;DHT22;2583;50.946;6.954;2023-04-07T05:29:09;9.20;1.00
5130;DHT22;2583;50.946;6.954;2023-04-07T05:31:36;9.20;1.00
5130;DHT22;2583;50.946;6.954;2023-04-07T05:34:03;9.20;1.00
5130;DHT22;2583;50.946;6.954;2023-04-07T05:36:30;9.30;1.00
5130;DHT22;2583;50.946;6.954;2023-04-07T05:38:57;9.20;1.00
5130;DHT22;2583;50.946;6.954;2023-04-07T05:41:24;9.20;1.00
5130;DHT22;2583;50.946;6.954;2023-04-07T05:43:50;9.20;1.00
5130;DHT22;2583;50.946;6.954;2023-04-07T05:46:17;9.20;1.00
5130;DHT22;2583;50.946;6.954;2023-04-07T05:48:44;9.20;1.00
5130;DHT22;2583;50.946;6.954;2023-04-07T05:51:11;9.10;1.00
5130;DHT22;2583;50.946;6.954;2023-04-07T05:53:38;9.10;1.00
5130;DHT22;2583;50.946;6.954;2023-04-07T05:56:05;9.20;1.00
5130;DHT22;2583;50.946;6.954;2023-04-07T05:58:32;9.10;1.00
5130;DHT22;2583;50.946;6.954;2023-04-07T06:00:59;9.10;1.00
5130;DHT22;2583;50.946;6.954;2023-04-07T06:03:26;9.10;1.00
5130;DHT22;2583;50.946;6.954;2023-04-07T06:05:53;9.10;1.00
5130;DHT22;2583;50.946;6.954;2023-04-07T06:08:20;9.10;1.00
5130;DHT22;2583;50.946;6.954;2023-04-07T06:10:47;9.00;1.00
5130;DHT22;2583;50.946;6.954;2023-04-07T06:13:13;9.00;1.00
5130;DHT22;2583;50.946;6.954;2023-04-07T06:15:40;9.00;1.00
5130;DHT22;2583;50.946;6.954;2023-04-07T06:18:07;9.10;1.00
5130;DHT22;2583;50.946;6.954;2023-04-07T06:20:34;9.00;1.00
5130;DHT22;2583;50.946;6.954;2023-04-07T06:23:01;9.00;1.00
5130;DHT22;2583;50.946;6.954;2023-04-07T06:25:28;9.00;1.00
5130;DHT22;2583;50.946;6.954;2023-04-07T06:27:54;9.00;1.00
5130;DHT22;2583;50.946;6.954;2023-04-07T06:30:21;9.00;1.00
5130;DHT22;2583;50.946;6.954;2023-04-07T06:32:48;9.00;1.00
5130;DHT22;2583;50.946;6.954;2023-04-07T06:35:15;9.00;1.00
5130;DHT22;2583;50.946;6.954;2023-04-07T06:37:42;9.00;1.00
5130;DHT22;2583;50.946;6.954;2023-04-07T06:40:09;9.00;1.00
5130;DHT22;2583;50.946;6.954;2023-04-07T06:42:36;9.00;1.00
5130;DHT22;2583;50.946;6.954;2023-04-07T06:45:02;9.00;1.00
5130;DHT22;2583;50.946;6.954;2023-04-07T06:47:29;9.00;1.00
5130;DHT22;2583;50.946;6.954;2023-04-07T06:49:56;8.90;1.00
5130;DHT22;2583;50.946;6.954;2023-04-07T06:52:23;9.00;1.00
5130;DHT22;2583;50.946;6.954;2023-04-07T06:54:50;8.90;1.00
5130;DHT22;2583;50.946;6.954;2023-04-07T06:57:17;8.90;1.00
5130;DHT22;2583;50.946;6.954;2023-04-07T06:59:44;8.90;1.00
5130;DHT22;2583;50.946;6.954;2023-04-07T07:02:11;8.90;1.00
5130;DHT22;2583;50.946;6.954;2023-04-07T07:04:38;9.00;1.00
5130;DHT22;2583;50.946;6.954;2023-04-07T07:07:05;8.90;1.00
5130;DHT22;2583;50.946;6.954;2023-04-07T07:09:31;8.90;1.00
5130;DHT22;2583;50.946;6.954;2023-04-07T07:11:58;8.90;1.00
5130;DHT22;2583;50.946;6.954;2023-04-07T07:14:29;8.90;1.00
5130;DHT22;2583;50.946;6.954;2023-04-07T07:16:56;9.00;1.00
5130;DHT22;2583;50.946;6.954;2023-04-07T07:19:23;8.90;1.00
5130;DHT22;2583;50.946;6.954;2023-04-07T07:21:50;8.90;1.00
5130;DHT22;2583;50.946;6.954;2023-04-07T07:24:17;9.00;1.00
5130;DHT22;2583;50.946;6.954;2023-04-07T07:26:43;9.00;1.00
5130;DHT22;2583;50.946;6.954;2023-04-07T07:29:11;9.10;1.00
5130;DHT22;2583;50.946;6.954;2023-04-07T07:31:38;9.10;1.00
5130;DHT22;2583;50.946;6.954;2023-04-07T07:34:05;9.10;1.00
5130;DHT22;2583;50.946;6.954;2023-04-07T07:36:32;9.10;1.00
5130;DHT22;2583;50.946;6.954;2023-04-07T07:38:59;9.10;1.00
5130;DHT22;2583;50.946;6.954;2023-04-07T07:41:26;9.10;1.00
5130;DHT22;2583;50.946;6.954;2023-04-07T07:43:53;9.20;1.00
5130;DHT22;2583;50.946;6.954;2023-04-07T07:46:19;9.20;99.90
5130;DHT22;2583;50.946;6.954;2023-04-07T07:48:46;9.30;1.00
5130;DHT22;2583;50.946;6.954;2023-04-07T07:51:13;9.40;1.00
5130;DHT22;2583;50.946;6.954;2023-04-07T07:53:40;9.40;99.90
5130;DHT22;2583;50.946;6.954;2023-04-07T07:56:07;9.40;99.90
5130;DHT22;2583;50.946;6.954;2023-04-07T07:58:33;9.40;17.70
5130;DHT22;2583;50.946;6.954;2023-04-07T08:01:00;9.50;1.00
5130;DHT22;2583;50.946;6.954;2023-04-07T08:03:27;9.50;1.00
5130;DHT22;2583;50.946;6.954;2023-04-07T08:05:54;9.60;1.00
5130;DHT22;2583;50.946;6.954;2023-04-07T08:08:21;9.60;56.00
5130;DHT22;2583;50.946;6.954;2023-04-07T08:10:48;9.60;99.90
5130;DHT22;2583;50.946;6.954;2023-04-07T08:13:14;9.60;99.90
5130;DHT22;2583;50.946;6.954;2023-04-07T08:15:41;9.70;99.90
5130;DHT22;2583;50.946;6.954;2023-04-07T08:18:10;9.70;1.00
5130;DHT22;2583;50.946;6.954;2023-04-07T08:20:36;9.70;1.00
5130;DHT22;2583;50.946;6.954;2023-04-07T08:23:03;9.80;1.00
5130;DHT22;2583;50.946;6.954;2023-04-07T08:25:30;9.80;99.90
5130;DHT22;2583;50.946;6.954;2023-04-07T08:27:57;9.90;1.00
5130;DHT22;2583;50.946;6.954;2023-04-07T08:30:25;9.90;1.00
5130;DHT22;2583;50.946;6.954;2023-04-07T08:32:52;9.70;99.90
5130;DHT22;2583;50.946;6.954;2023-04-07T08:35:19;9.70;99.90
5130;DHT22;2583;50.946;6.954;2023-04-07T08:37:46;9.80;99.90
5130;DHT22;2583;50.946;6.954;2023-04-07T08:40:13;9.80;1.00
5130;DHT22;2583;50.946;6.954;2023-04-07T08:42:41;9.80;1.00
5130;DHT22;2583;50.946;6.954;2023-04-07T08:45:09;9.80;90.80
5130;DHT22;2583;50.946;6.954;2023-04-07T08:47:36;9.80;99.90
5130;DHT22;2583;50.946;6.954;2023-04-07T08:50:07;9.90;1.00
5130;DHT22;2583;50.946;6.954;2023-04-07T08:52:49;9.80;99.90
5130;DHT22;2583;50.946;6.954;2023-04-07T08:55:16;9.90;99.90
5130;DHT22;2583;50.946;6.954;2023-04-07T08:57:43;10.00;62.60
5130;DHT22;2583;50.946;6.954;2023-04-07T09:00:12;10.00;1.00
5130;DHT22;2583;50.946;6.954;2023-04-07T09:02:41;9.90;1.00
5130;DHT22;2583;50.946;6.954;2023-04-07T09:05:10;10.00;99.90
5130;DHT22;2583;50.946;6.954;2023-04-07T09:07:38;10.10;99.90
5130;DHT22;2583;50.946;6.954;2023-04-07T09:10:11;10.00;1.00
5130;DHT22;2583;50.946;6.954;2023-04-07T09:12:38;10.10;1.00
5130;DHT22;2583;50.946;6.954;2023-04-07T09:15:06;10.10;99.90
5130;DHT22;2583;50.946;6.954;2023-04-07T09:17:33;10.10;44.20
5130;DHT22;2583;50.946;6.954;2023-04-07T09:20:00;10.20;99.90
5130;DHT22;2583;50.946;6.954;2023-04-07T09:22:54;10.10;99.90
5130;DHT22;2583;50.946;6.954;2023-04-07T09:25:23;10.10;1.00
5130;DHT22;2583;50.946;6.954;2023-04-07T09:28:00;10.20;99.90
5130;DHT22;2583;50.946;6.954;2023-04-07T09:30:28;10.30;1.00
5130;DHT22;2583;50.946;6.954;2023-04-07T09:32:56;10.20;1.00
5130;DHT22;2583;50.946;6.954;2023-04-07T09:35:23;10.30;99.90
5130;DHT22;2583;50.946;6.954;2023-04-07T09:38:07;10.30;1.00
5130;DHT22;2583;50.946;6.954;2023-04-07T09:40:35;10.50;99.90
5130;DHT22;2583;50.946;6.954;2023-04-07T09:43:04;10.40;1.00
5130;DHT22;2583;50.946;6.954;2023-04-07T09:45:31;10.50;1.00
5130;DHT22;2583;50.946;6.954;2023-04-07T09:48:06;10.40;99.90
5130;DHT22;2583;50.946;6.954;2023-04-07T09:50:39;10.30;1.00
5130;DHT22;2583;50.946;6.954;2023-04-07T09:53:07;10.40;99.90
5130;DHT22;2583;50.946;6.954;2023-04-07T09:55:34;10.40;99.90
5130;DHT22;2583;50.946;6.954;2023-04-07T09:58:03;10.40;99.90
5130;DHT22;2583;50.946;6.954;2023-04-07T10:00:31;10.40;99.90
5130;DHT22;2583;50.946;6.954;2023-04-07T10:02:59;10.50;1.00
5130;DHT22;2583;50.946;6.954;2023-04-07T10:05:27;10.60;1.00
5130;DHT22;2583;50.946;6.954;2023-04-07T10:07:54;10.80;1.00
5130;DHT22;2583;50.946;6.954;2023-04-07T10:10:21;10.80;99.90
5130;DHT22;2583;50.946;6.954;2023-04-07T10:12:49;10.60;1.00
5130;DHT22;2583;50.946;6.954;2023-04-07T10:15:18;10.60;1.00
5130;DHT22;2583;50.946;6.954;2023-04-07T10:17:46;10.50;99.90
5130;DHT22;2583;50.946;6.954;2023-04-07T10:20:18;10.40;99.90
5130;DHT22;2583;50.946;6.954;2023-04-07T10:22:50;10.50;99.90
5130;DHT22;2583;50.946;6.954;2023-04-07T10:25:21;10.50;1.00
5130;DHT22;2583;50.946;6.954;2023-04-07T10:27:54;10.50;1.00
5130;DHT22;2583;50.946;6.954;2023-04-07T10:30:27;10.50;1.00
5130;DHT22;2583;50.946;6.954;2023-04-07T10:32:54;10.40;1.00
5130;DHT22;2583;50.946;6.954;2023-04-07T10:35:22;10.50;92.30
5130;DHT22;2583;50.946;6.954;2023-04-07T10:40:36;10.50;99.90
5130;DHT22;2583;50.946;6.954;2023-04-07T10:43:04;10.60;1.00
5130;DHT22;2583;50.946;6.954;2023-04-07T10:48:18;10.70;99.90
5130;DHT22;2583;50.946;6.954;2023-04-07T10:53:30;10.70;36.90
5130;DHT22;2583;50.946;6.954;2023-04-07T10:55:57;10.70;99.90
5130;DHT22;2583;50.946;6.954;2023-04-07T10:58:25;10.60;99.90
5130;DHT22;2583;50.946;6.954;2023-04-07T11:03:34;10.50;99.90
5130;DHT22;2583;50.946;6.954;2023-04-07T11:06:10;10.40;1.00
5130;DHT22;2583;50.946;6.954;2023-04-07T11:08:40;10.30;99.90
5130;DHT22;2583;50.946;6.954;2023-04-07T11:11:14;10.30;1.00
5130;DHT22;2583;50.946;6.954;2023-04-07T11:13:42;10.30;13.30
5130;DHT22;2583;50.946;6.954;2023-04-07T11:16:09;10.30;99.90
5130;DHT22;2583;50.946;6.954;2023-04-07T11:18:37;10.40;26.20
5130;DHT22;2583;50.946;6.954;2023-04-07T11:21:05;10.50;99.90
5130;DHT22;2583;50.946;6.954;2023-04-07T11:23:43;10.60;1.00
5130;DHT22;2583;50.946;6.954;2023-04-07T11:26:12;10.70;99.90
5130;DHT22;2583;50.946;6.954;2023-04-07T11:28:46;10.80;1.70
5130;DHT22;2583;50.946;6.954;2023-04-07T11:31:30;10.80;99.90
5130;DHT22;2583;50.946;6.954;2023-04-07T11:33:59;11.00;1.00
5130;DHT22;2583;50.946;6.954;2023-04-07T11:38:54;11.00;1.00
5130;DHT22;2583;50.946;6.954;2023-04-07T11:41:24;11.00;1.00
5130;DHT22;2583;50.946;6.954;2023-04-07T11:44:11;11.00;99.90
5130;DHT22;2583;50.946;6.954;2023-04-07T11:46:58;11.10;99.90
5130;DHT22;2583;50.946;6.954;2023-04-07T11:49:26;11.10;1.00
5130;DHT22;2583;50.946;6.954;2023-04-07T11:52:02;11.10;99.90
5130;DHT22;2583;50.946;6.954;2023-04-07T11:54:42;11.00;99.90
5130;DHT22;2583;50.946;6.954;2023-04-07T11:57:09;11.00;1.00
5130;DHT22;2583;50.946;6.954;2023-04-07T11:59:39;11.10;99.90
5130;DHT22;2583;50.946;6.954;2023-04-07T12:02:06;11.20;99.90
5130;DHT22;2583;50.946;6.954;2023-04-07T12:04:34;11.20;44.10
5130;DHT22;2583;50.946;6.954;2023-04-07T12:07:10;11.20;99.90
5130;DHT22;2583;50.946;6.954;2023-04-07T12:09:37;11.30;1.00
5130;DHT22;2583;50.946;6.954;2023-04-07T12:12:05;11.30;57.80
5130;DHT22;2583;50.946;6.954;2023-04-07T12:14:34;11.30;1.00
5130;DHT22;2583;50.946;6.954;2023-04-07T12:17:01;11.30;99.90
5130;DHT22;2583;50.946;6.954;2023-04-07T12:19:30;11.30;1.00
5130;DHT22;2583;50.946;6.954;2023-04-07T12:22:01;11.30;99.90
5130;DHT22;2583;50.946;6.954;2023-04-07T12:24:27;11.30;99.90
5130;DHT22;2583;50.946;6.954;2023-04-07T12:26:54;11.40;1.00
5130;DHT22;2583;50.946;6.954;2023-04-07T12:29:22;11.40;1.00
5130;DHT22;2583;50.946;6.954;2023-04-07T12:31:48;11.50;65.10
5130;DHT22;2583;50.946;6.954;2023-04-07T12:34:17;11.60;1.00
5130;DHT22;2583;50.946;6.954;2023-04-07T12:36:44;11.70;1.00
5130;DHT22;2583;50.946;6.954;2023-04-07T12:39:11;11.80;1.00
5130;DHT22;2583;50.946;6.954;2023-04-07T12:41:38;11.70;1.00
5130;DHT22;2583;50.946;6.954;2023-04-07T12:44:05;11.60;1.00
5130;DHT22;2583;50.946;6.954;2023-04-07T12:46:32;11.50;1.00
5130;DHT22;2583;50.946;6.954;2023-04-07T12:48:59;11.50;1.00
5130;DHT22;2583;50.946;6.954;2023-04-07T12:51:26;11.50;1.00
5130;DHT22;2583;50.946;6.954;2023-04-07T12:53:54;11.60;1.00
5130;DHT22;2583;50.946;6.954;2023-04-07T12:56:20;11.50;99.90
5130;DHT22;2583;50.946;6.954;2023-04-07T12:58:48;11.50;99.90
5130;DHT22;2583;50.946;6.954;2023-04-07T13:01:15;11.40;99.90
5130;DHT22;2583;50.946;6.954;2023-04-07T13:03:42;11.30;99.90
5130;DHT22;2583;50.946;6.954;2023-04-07T13:06:09;11.30;99.90
5130;DHT22;2583;50.946;6.954;2023-04-07T13:08:38;11.30;1.00
5130;DHT22;2583;50.946;6.954;2023-04-07T13:11:05;11.20;1.00
5130;DHT22;2583;50.946;6.954;2023-04-07T13:13:32;11.10;1.00
5130;DHT22;2583;50.946;6.954;2023-04-07T13:15:59;11.20;17.40
5130;DHT22;2583;50.946;6.954;2023-04-07T13:18:26;11.20;11.50
5130;DHT22;2583;50.946;6.954;2023-04-07T13:20:53;11.40;1.00
5130;DHT22;2583;50.946;6.954;2023-04-07T13:23:39;11.50;1.00
5130;DHT22;2583;50.946;6.954;2023-04-07T13:26:19;11.40;1.00
5130;DHT22;2583;50.946;6.954;2023-04-07T13:28:46;11.40;1.00
5130;DHT22;2583;50.946;6.954;2023-04-07T13:31:13;11.30;1.00
5130;DHT22;2583;50.946;6.954;2023-04-07T13:33:42;11.30;1.00
5130;DHT22;2583;50.946;6.954;2023-04-07T13:36:08;11.40;1.00
5130;DHT22;2583;50.946;6.954;2023-04-07T13:38:35;11.50;57.80
5130;DHT22;2583;50.946;6.954;2023-04-07T13:41:02;11.70;1.00
5130;DHT22;2583;50.946;6.954;2023-04-07T13:43:29;11.90;99.90
5130;DHT22;2583;50.946;6.954;2023-04-07T13:45:56;11.80;99.90
5130;DHT22;2583;50.946;6.954;2023-04-07T13:48:23;11.90;99.90
5130;DHT22;2583;50.946;6.954;2023-04-07T13:50:49;12.00;99.90
5130;DHT22;2583;50.946;6.954;2023-04-07T13:53:16;12.10;99.90
5130;DHT22;2583;50.946;6.954;2023-04-07T13:55:44;12.10;98.50
5130;DHT22;2583;50.946;6.954;2023-04-07T13:58:12;12.10;99.90
5130;DHT22;2583;50.946;6.954;2023-04-07T14:00:38;12.00;99.90
5130;DHT22;2583;50.946;6.954;2023-04-07T14:03:05;12.00;99.90
5130;DHT22;2583;50.946;6.954;2023-04-07T14:05:33;12.10;99.90
5130;DHT22;2583;50.946;6.954;2023-04-07T14:08:01;12.10;23.00
5130;DHT22;2583;50.946;6.954;2023-04-07T14:10:28;12.00;64.40
5130;DHT22;2583;50.946;6.954;2023-04-07T14:12:55;12.10;53.20
5130;DHT22;2583;50.946;6.954;2023-04-07T14:15:22;12.30;54.00
5130;DHT22;2583;50.946;6.954;2023-04-07T14:17:49;12.30;29.50
5130;DHT22;2583;50.946;6.954;2023-04-07T14:20:16;12.40;9.80
5130;DHT22;2583;50.946;6.954;2023-04-07T14:22:43;12.50;1.00
5130;DHT22;2583;50.946;6.954;2023-04-07T14:25:10;12.30;1.00
5130;DHT22;2583;50.946;6.954;2023-04-07T14:27:37;12.20;3.00
5130;DHT22;2583;50.946;6.954;2023-04-07T14:30:04;12.30;99.90
5130;DHT22;2583;50.946;6.954;2023-04-07T14:32:32;12.20;1.00
5130;DHT22;2583;50.946;6.954;2023-04-07T14:34:59;12.10;57.20
5130;DHT22;2583;50.946;6.954;2023-04-07T14:37:27;11.90;99.90
5130;DHT22;2583;50.946;6.954;2023-04-07T14:39:54;11.80;99.90
5130;DHT22;2583;50.946;6.954;2023-04-07T14:42:24;11.70;1.00
5130;DHT22;2583;50.946;6.954;2023-04-07T14:44:51;11.50;99.90
5130;DHT22;2583;50.946;6.954;2023-04-07T14:47:18;11.40;99.90
5130;DHT22;2583;50.946;6.954;2023-04-07T14:49:45;11.30;99.90
5130;DHT22;2583;50.946;6.954;2023-04-07T14:52:12;11.30;1.00
5130;DHT22;2583;50.946;6.954;2023-04-07T14:54:39;11.30;99.90
5130;DHT22;2583;50.946;6.954;2023-04-07T14:57:06;11.40;1.00
5130;DHT22;2583;50.946;6.954;2023-04-07T14:59:33;11.30;99.90
5130;DHT22;2583;50.946;6.954;2023-04-07T15:01:59;11.30;21.40
5130;DHT22;2583;50.946;6.954;2023-04-07T15:04:26;11.30;1.00
5130;DHT22;2583;50.946;6.954;2023-04-07T15:06:53;11.30;1.00
5130;DHT22;2583;50.946;6.954;2023-04-07T15:09:20;11.20;1.00
5130;DHT22;2583;50.946;6.954;2023-04-07T15:11:47;11.30;99.90
5130;DHT22;2583;50.946;6.954;2023-04-07T15:14:14;11.30;85.60
5130;DHT22;2583;50.946;6.954;2023-04-07T15:16:40;11.30;1.00
5130;DHT22;2583;50.946;6.954;2023-04-07T15:19:07;11.40;1.00
5130;DHT22;2583;50.946;6.954;2023-04-07T15:21:34;11.50;1.00
5130;DHT22;2583;50.946;6.954;2023-04-07T15:24:01;11.50;1.00
5130;DHT22;2583;50.946;6.954;2023-04-07T15:26:28;11.60;1.00
5130;DHT22;2583;50.946;6.954;2023-04-07T15:28:54;11.70;1.00
5130;DHT22;2583;50.946;6.954;2023-04-07T15:31:21;11.60;99.90
5130;DHT22;2583;50.946;6.954;2023-04-07T15:33:49;11.60;99.90
5130;DHT22;2583;50.946;6.954;2023-04-07T15:36:16;11.60;99.90
5130;DHT22;2583;50.946;6.954;2023-04-07T15:38:43;11.70;99.90
5130;DHT22;2583;50.946;6.954;2023-04-07T15:41:13;11.70;99.90
5130;DHT22;2583;50.946;6.954;2023-04-07T15:43:41;11.60;99.90
5130;DHT22;2583;50.946;6.954;2023-04-07T15:46:08;11.60;99.90
5130;DHT22;2583;50.946;6.954;2023-04-07T15:48:35;11.60;99.90
5130;DHT22;2583;50.946;6.954;2023-04-07T15:51:01;11.60;99.90
5130;DHT22;2583;50.946;6.954;2023-04-07T15:53:28;11.60;99.90
5130;DHT22;2583;50.946;6.954;2023-04-07T15:55:56;11.60;99.90
5130;DHT22;2583;50.946;6.954;2023-04-07T15:58:22;11.60;99.90
5130;DHT22;2583;50.946;6.954;2023-04-07T16:00:49;11.70;99.90
5130;DHT22;2583;50.946;6.954;2023-04-07T16:03:16;11.80;99.90
5130;DHT22;2583;50.946;6.954;2023-04-07T16:05:43;11.80;99.90
5130;DHT22;2583;50.946;6.954;2023-04-07T16:08:10;11.80;99.90
5130;DHT22;2583;50.946;6.954;2023-04-07T16:10:39;11.80;99.90
5130;DHT22;2583;50.946;6.954;2023-04-07T16:13:06;11.80;99.90
5130;DHT22;2583;50.946;6.954;2023-04-07T16:15:33;11.80;99.90
5130;DHT22;2583;50.946;6.954;2023-04-07T16:18:09;11.90;99.90
5130;DHT22;2583;50.946;6.954;2023-04-07T16:20:36;11.80;99.90
5130;DHT22;2583;50.946;6.954;2023-04-07T16:23:03;11.80;99.90
5130;DHT22;2583;50.946;6.954;2023-04-07T16:25:30;11.90;99.90
5130;DHT22;2583;50.946;6.954;2023-04-07T16:27:56;11.90;99.90
5130;DHT22;2583;50.946;6.954;2023-04-07T16:30:23;12.00;99.90
5130;DHT22;2583;50.946;6.954;2023-04-07T16:32:51;12.10;99.90
5130;DHT22;2583;50.946;6.954;2023-04-07T16:35:18;12.20;9.20
5130;DHT22;2583;50.946;6.954;2023-04-07T16:37:44;12.10;1.50
5130;DHT22;2583;50.946;6.954;2023-04-07T16:40:12;12.10;37.30
5130;DHT22;2583;50.946;6.954;2023-04-07T16:42:39;12.10;36.60
5130;DHT22;2583;50.946;6.954;2023-04-07T16:45:06;11.90;8.80